Meath Environmental Platform

Observations

Time Sensor AQI SAQ Temp °C Hum % Pres Pa CO μg/m³ H₂S μg/m³ NO μg/m³ NO₂ μg/m³ O₃ μg/m³ SO₂ μg/m³ CO₂e PPM VOC PPM PM1 μg/m³ PM2.5 μg/m³ PM4 μg/m³ PM10 μg/m³ TPS µm
Wednesday 12 August 2026
09:48 Trim Patrick St 2 24.8 63 106,054 0.11 0 1.4 8.51 41.04 2.42 7.14 11.46 12.6
09:47 Trim Market St 2 25.6 65 56,671 0.5 0 1.48 13.76 40.93 0 3.56 5.28 7.53
09:47 Trim Patrick St 2 24.7 64 109,300 0.12 0 1.5 7.59 26.24 1.74 7.14 10.66 11.73
09:46 Trim Market St 2 25.3 65 56,448 0.52 0 1.47 14.25 28.81 0 4.28 5.76 8.84
09:46 Trim Patrick St 2 24.6 65 3,149 0.13 0 1.6 7.62 37.74 2.29 7.14 11.34 12.48
09:45 Trim Patrick St 2 24.4 65 12,299 0.11 0 1.58 12.82 45.81 3.24 7.14 12.05 13.26
09:44 Trim Market St 2 24.9 66 55,900 0.49 0 1.57 15.87 21.14 0 5.7 6.67 10.77
09:43 Trim Patrick St 2 24.2 66 33,253 0.12 0 1.83 12.09 31.81 2.79 7.14 11.27 12.4
09:42 Trim Market St 2 24.5 67 55,124 0.43 0 1.7 13.68 32.62 0 6.41 7.58 11.38
09:42 Trim Patrick St 2 24.1 66 38,460 0.1 0 1.76 8.74 46.59 2.96 8 11.26 12.38
09:41 Trim Market St 2 24.4 68 54,648 0.44 0 1.8 16.18 35.11 0 3.56 5.1 8.17
09:41 Trim Patrick St 2 23.9 66 38,460 0.1 0 1.74 8.72 29.66 2.58 6.29 11.25 12.37
09:40 Trim Market St 2 24.2 68 54,228 0.47 0 1.85 46.37 30.29 0 5.7 6.55 10.08
09:40 Trim Patrick St 2 23.8 67 38,460 0.12 0 1.79 19.36 38.5 2.47 6.29 11.19 12.31
09:38 Trim Market St 2 23.8 69 53,547 0.44 0 1.74 44.63 46.98 0 3.56 5.55 9.43
09:38 Trim Patrick St 2 23.5 67 38,460 0.08 0 1.5 13.5 34.41 1.42 7.14 12.65 13.91
09:37 Trim Patrick St 2 23.4 67 38,460 0.07 0 1.49 7.64 29.78 2.06 8 11.87 13.06
09:36 Trim Patrick St 2 23.3 68 38,460 0.07 0 1.44 14.12 45.69 2.67 8 12.55 13.8
09:35 Trim Patrick St 2 23.2 68 38,460 0.07 1.02 1.46 17.89 45.44 2.83 8 11.78 12.96
09:34 Trim Market St 2 23 70 52,355 0.34 0 1.54 30.71 39.77 0 4.99 6.97 10.05